Time;durP1;ratioP1;P1;durP2;ratioP2;P2;SDS_P1;SDS_P2;PMS_P1;PMS_P2;Temp;Humidity;BMP_temperature;BMP_pressure;BME280_temperature;BME280_humidity;BME280_pressure;Samples;Min_cycle;Max_cycle;Signal;HPM_P1;HPM_P2
2022/03/22 00:01:08;;;;;;;0.30;0.10;;;2.70;48.60;;;;;;5065829;28;20468;-88
2022/03/22 00:03:35;;;;;;;0.30;0.10;;;2.80;48.60;;;;;;5067243;28;20467;-88
2022/03/22 00:06:04;;;;;;;0.30;0.10;;;2.80;48.70;;;;;;5070049;28;20953;-87
2022/03/22 00:08:31;;;;;;;0.77;0.77;;;2.80;48.60;;;;;;5065685;28;20205;-87
2022/03/22 00:10:58;;;;;;;0.40;0.30;;;2.80;48.50;;;;;;5067205;28;20451;-88
2022/03/22 00:13:27;;;;;;;0.30;0.10;;;2.70;48.90;;;;;;5064095;28;20266;-88
2022/03/22 00:15:55;;;;;;;0.35;0.20;;;2.70;49.10;;;;;;5066151;28;20753;-88
2022/03/22 00:18:23;;;;;;;0.30;0.10;;;2.70;49.00;;;;;;5068477;28;20227;-88
2022/03/22 00:20:50;;;;;;;0.30;0.10;;;2.80;48.70;;;;;;5068280;28;20213;-89
2022/03/22 00:23:19;;;;;;;0.30;0.10;;;2.70;48.80;;;;;;5063985;28;20555;-87
2022/03/22 00:25:46;;;;;;;0.30;0.10;;;2.70;48.90;;;;;;5065381;28;20487;-89
2022/03/22 00:28:14;;;;;;;0.30;0.20;;;2.70;49.70;;;;;;5070166;28;20504;-87
2022/03/22 00:30:42;;;;;;;0.40;0.10;;;2.50;49.40;;;;;;5068832;28;20462;-87
2022/03/22 00:33:10;;;;;;;0.40;0.40;;;2.70;48.70;;;;;;5067517;28;20218;-88
2022/03/22 00:35:39;;;;;;;0.40;0.40;;;2.70;48.80;;;;;;5069088;28;20228;-87
2022/03/22 00:38:08;;;;;;;0.30;0.10;;;2.60;49.00;;;;;;5069202;28;20217;-88
2022/03/22 00:40:36;;;;;;;0.30;0.10;;;2.60;49.00;;;;;;5082522;28;20208;-87
2022/03/22 00:43:04;;;;;;;0.30;0.10;;;2.70;48.50;;;;;;5082627;28;20231;-87
2022/03/22 00:45:32;;;;;;;0.30;0.23;;;2.70;48.30;;;;;;5084087;28;20993;-88
2022/03/22 00:48:00;;;;;;;0.30;0.10;;;2.60;48.50;;;;;;5084671;28;20446;-87
2022/03/22 00:50:30;;;;;;;0.30;0.10;;;2.60;48.60;;;;;;5081699;28;20447;-88
2022/03/22 00:52:58;;;;;;;0.30;0.20;;;2.50;48.50;;;;;;5065825;28;20516;-88
2022/03/22 00:55:26;;;;;;;0.30;0.10;;;2.50;48.50;;;;;;5061878;28;20514;-88
2022/03/22 00:57:56;;;;;;;0.30;0.10;;;2.40;48.70;;;;;;5065716;28;20549;-88
2022/03/22 01:00:25;;;;;;;0.40;0.25;;;2.30;49.30;;;;;;5068249;28;20469;-88
2022/03/22 01:02:54;;;;;;;0.30;0.10;;;2.20;49.70;;;;;;5065189;28;20258;-88
2022/03/22 01:05:23;;;;;;;0.30;0.10;;;2.20;49.40;;;;;;5073333;28;20853;-88
2022/03/22 01:07:52;;;;;;;0.30;0.10;;;2.40;49.00;;;;;;5065889;28;20210;-89
2022/03/22 01:10:22;;;;;;;0.30;0.20;;;2.50;48.70;;;;;;5068306;28;20509;-88
2022/03/22 01:12:50;;;;;;;0.30;0.17;;;2.50;48.50;;;;;;5066243;28;20737;-88
2022/03/22 01:15:20;;;;;;;1.38;1.00;;;2.40;48.60;;;;;;5069605;28;20224;-88
2022/03/22 01:17:49;;;;;;;0.40;0.38;;;2.40;48.70;;;;;;5065500;28;20263;-87
2022/03/22 01:20:19;;;;;;;0.30;0.20;;;2.50;48.30;;;;;;5066772;28;20622;-88
2022/03/22 01:22:48;;;;;;;0.30;0.20;;;2.50;48.40;;;;;;5069329;28;20613;-88
2022/03/22 01:25:17;;;;;;;0.30;0.20;;;2.40;48.70;;;;;;5066284;28;20208;-87
2022/03/22 01:27:46;;;;;;;0.30;0.10;;;2.40;48.90;;;;;;5063928;28;20209;-87
2022/03/22 01:30:15;;;;;;;0.43;0.43;;;2.40;49.00;;;;;;5068455;28;20966;-88
2022/03/22 01:32:44;;;;;;;0.30;0.10;;;2.40;48.80;;;;;;5065001;28;20459;-87
2022/03/22 01:35:11;;;;;;;0.30;0.10;;;2.30;49.20;;;;;;5063180;28;20483;-87
2022/03/22 01:37:38;;;;;;;0.50;0.50;;;2.30;49.10;;;;;;5068936;28;20454;-87
2022/03/22 01:40:07;;;;;;;0.30;0.17;;;2.20;49.40;;;;;;5066249;28;20466;-87
2022/03/22 01:42:35;;;;;;;0.30;0.20;;;2.20;49.30;;;;;;5087634;28;20485;-87
2022/03/22 01:45:03;;;;;;;0.30;0.20;;;2.20;49.40;;;;;;5068232;28;20261;-87
2022/03/22 01:47:32;;;;;;;0.30;0.13;;;2.10;49.60;;;;;;5071674;28;20763;-88
2022/03/22 01:50:00;;;;;;;0.30;0.20;;;2.10;49.60;;;;;;5070501;28;20532;-88
2022/03/22 01:52:27;;;;;;;0.30;0.10;;;2.10;49.50;;;;;;5068586;28;20224;-87
2022/03/22 01:54:55;;;;;;;0.30;0.10;;;2.00;50.00;;;;;;5070148;28;20448;-87
2022/03/22 01:57:24;;;;;;;0.40;0.35;;;2.00;49.70;;;;;;5072072;28;20208;-87
2022/03/22 01:59:52;;;;;;;0.30;0.10;;;1.90;50.10;;;;;;5069501;28;20196;-87
2022/03/22 02:07:52;;;;;;;0.30;0.10;;;2.00;49.70;;;;;;5067233;28;20269;-87
2022/03/22 02:10:19;;;;;;;0.30;0.20;;;2.00;49.80;;;;;;5064746;28;20673;-87
2022/03/22 02:12:46;;;;;;;0.30;0.10;;;2.00;49.60;;;;;;5069335;28;20209;-87
2022/03/22 02:15:13;;;;;;;0.30;0.10;;;2.00;49.70;;;;;;5072370;28;20285;-87
2022/03/22 02:17:40;;;;;;;0.30;0.10;;;2.00;49.90;;;;;;5076342;28;20201;-87
2022/03/22 02:20:10;;;;;;;0.30;0.10;;;2.10;49.60;;;;;;5074386;28;20262;-87
2022/03/22 02:22:45;;;;;;;1.00;0.50;;;2.00;49.70;;;;;;5071928;28;20205;-87
2022/03/22 02:25:15;;;;;;;0.30;0.10;;;1.90;50.10;;;;;;5066526;28;20493;-88
2022/03/22 02:27:44;;;;;;;0.30;0.10;;;1.90;49.70;;;;;;5072136;28;21107;-87
2022/03/22 02:30:12;;;;;;;0.30;0.10;;;1.90;49.70;;;;;;5067756;28;20472;-88
2022/03/22 02:32:39;;;;;;;0.30;0.10;;;1.80;50.20;;;;;;5069966;28;20550;-88
2022/03/22 02:35:07;;;;;;;0.30;0.20;;;1.70;50.50;;;;;;5072206;28;20207;-88
2022/03/22 02:37:34;;;;;;;0.30;0.10;;;1.60;50.50;;;;;;5072554;28;20201;-87
2022/03/22 02:40:01;;;;;;;0.30;0.20;;;1.60;50.40;;;;;;5067378;28;20728;-87
2022/03/22 02:42:30;;;;;;;0.30;0.10;;;1.80;50.40;;;;;;5071549;28;20721;-87
2022/03/22 02:44:57;;;;;;;0.30;0.20;;;1.80;50.00;;;;;;5065239;28;20459;-87
2022/03/22 02:47:24;;;;;;;0.30;0.20;;;1.80;50.30;;;;;;5070724;28;20211;-87
2022/03/22 02:49:51;;;;;;;0.30;0.10;;;1.70;50.30;;;;;;5068332;28;20200;-87
2022/03/22 02:52:18;;;;;;;0.30;0.10;;;1.70;50.40;;;;;;5061433;28;20459;-87
2022/03/22 02:54:46;;;;;;;0.40;0.30;;;1.70;50.50;;;;;;5062815;28;20211;-87
2022/03/22 02:57:13;;;;;;;0.30;0.10;;;1.70;50.50;;;;;;5063571;28;20228;-87
2022/03/22 02:59:41;;;;;;;0.30;0.10;;;1.80;50.20;;;;;;5060391;28;20213;-87
2022/03/22 03:02:08;;;;;;;0.30;0.10;;;1.80;50.10;;;;;;5070147;28;20220;-87
2022/03/22 03:04:35;;;;;;;0.30;0.10;;;1.80;50.10;;;;;;5066256;28;20258;-87
2022/03/22 03:07:02;;;;;;;0.40;0.30;;;1.70;50.30;;;;;;5064082;28;20213;-88
2022/03/22 03:09:29;;;;;;;0.30;0.20;;;1.80;50.20;;;;;;5061450;28;20288;-87
2022/03/22 03:11:56;;;;;;;0.30;0.20;;;1.80;50.20;;;;;;5065268;28;20451;-88
2022/03/22 03:14:43;;;;;;;0.30;0.10;;;1.80;50.20;;;;;;5061159;28;20259;-87
2022/03/22 03:17:13;;;;;;;0.30;0.10;;;1.90;50.00;;;;;;5062830;28;20518;-87
2022/03/22 03:19:40;;;;;;;0.30;0.10;;;2.00;49.50;;;;;;5062956;28;20490;-87
2022/03/22 03:22:08;;;;;;;0.30;0.20;;;2.00;49.40;;;;;;5059882;28;20285;-87
2022/03/22 03:24:35;;;;;;;0.30;0.10;;;2.00;49.50;;;;;;5057061;28;20198;-87
2022/03/22 03:27:03;;;;;;;0.30;0.10;;;2.00;50.00;;;;;;5057356;28;20284;-87
2022/03/22 03:29:30;;;;;;;0.30;0.10;;;2.10;49.20;;;;;;5056276;28;20262;-88
2022/03/22 03:31:57;;;;;;;0.30;0.10;;;2.30;49.10;;;;;;5069003;28;20265;-87
2022/03/22 03:34:25;;;;;;;0.30;0.20;;;2.30;48.40;;;;;;5067028;28;20209;-85
2022/03/22 03:36:52;;;;;;;0.30;0.20;;;2.50;47.70;;;;;;5070496;28;20489;-87
2022/03/22 03:39:19;;;;;;;0.30;0.20;;;2.50;47.50;;;;;;5066182;28;20977;-87
2022/03/22 03:41:54;;;;;;;1.23;0.47;;;2.60;47.30;;;;;;5070712;28;20201;-87
2022/03/22 03:47:08;;;;;;;0.30;0.20;;;2.50;47.60;;;;;;5074314;28;20211;-88
2022/03/22 03:49:38;;;;;;;0.30;0.10;;;2.40;48.00;;;;;;5065348;28;20288;-87
2022/03/22 03:52:07;;;;;;;0.40;0.35;;;2.30;48.40;;;;;;5068075;28;20212;-87
2022/03/22 03:54:35;;;;;;;0.30;0.10;;;2.20;48.90;;;;;;5065652;28;20200;-87
2022/03/22 03:57:02;;;;;;;0.40;0.20;;;2.10;48.70;;;;;;5069756;28;20231;-87
2022/03/22 03:59:30;;;;;;;1.15;0.75;;;2.00;49.10;;;;;;5070956;28;20207;-87
2022/03/22 04:01:57;;;;;;;0.30;0.10;;;2.00;49.20;;;;;;5066577;28;20262;-87
2022/03/22 04:04:24;;;;;;;0.30;0.20;;;2.10;49.10;;;;;;5070408;28;20296;-87
2022/03/22 04:06:52;;;;;;;0.82;0.40;;;2.00;48.90;;;;;;5062226;28;20871;-87
2022/03/22 04:09:19;;;;;;;0.40;0.22;;;2.10;48.50;;;;;;5072673;28;20248;-87
2022/03/22 04:11:47;;;;;;;0.38;0.25;;;2.10;48.60;;;;;;5068285;28;20200;-87
2022/03/22 04:14:14;;;;;;;0.30;0.10;;;1.90;49.30;;;;;;5066086;28;20854;-87
2022/03/22 04:16:42;;;;;;;0.30;0.10;;;1.70;50.10;;;;;;5067326;28;20719;-86
2022/03/22 04:19:09;;;;;;;0.30;0.10;;;1.70;50.10;;;;;;5069365;28;20233;-87
2022/03/22 04:21:38;;;;;;;0.30;0.20;;;1.60;50.00;;;;;;5067374;28;20259;-87
2022/03/22 04:24:07;;;;;;;0.30;0.10;;;1.50;50.20;;;;;;5067370;28;20517;-87
2022/03/22 04:26:36;;;;;;;0.50;0.50;;;1.30;50.80;;;;;;5070014;28;21008;-87
2022/03/22 04:34:38;;;;;;;0.30;0.15;;;1.00;51.50;;;;;;5062438;28;20588;-87
2022/03/22 04:37:07;;;;;;;0.30;0.10;;;0.80;52.20;;;;;;5062697;28;20238;-87
2022/03/22 04:39:36;;;;;;;0.30;0.10;;;0.80;52.20;;;;;;5064818;28;20262;-87
2022/03/22 04:42:04;;;;;;;0.30;0.10;;;0.80;52.60;;;;;;5064782;28;20678;-87
2022/03/22 04:44:31;;;;;;;7.43;2.17;;;0.70;52.70;;;;;;5068335;28;20208;-87
2022/03/22 04:46:59;;;;;;;0.50;0.50;;;0.50;52.70;;;;;;5068548;28;20265;-87
2022/03/22 04:49:27;;;;;;;0.30;0.10;;;0.60;53.10;;;;;;5066790;28;20253;-87
2022/03/22 04:57:26;;;;;;;0.35;0.25;;;0.70;52.60;;;;;;5065961;28;20253;-87
2022/03/22 04:59:54;;;;;;;0.40;0.20;;;0.60;53.50;;;;;;5069733;28;20234;-87
2022/03/22 05:02:21;;;;;;;0.30;0.10;;;0.60;53.20;;;;;;5069094;28;20627;-87
2022/03/22 05:04:48;;;;;;;0.30;0.10;;;0.70;53.50;;;;;;5066280;28;20713;-87
2022/03/22 05:07:15;;;;;;;0.30;0.17;;;0.60;54.00;;;;;;5068029;28;20196;-87
2022/03/22 05:09:44;;;;;;;1.20;0.65;;;0.70;54.10;;;;;;5066769;28;20538;-88
2022/03/22 05:12:13;;;;;;;1.58;0.50;;;0.70;54.10;;;;;;5063832;28;20204;-87
2022/03/22 05:14:41;;;;;;;0.30;0.10;;;0.70;54.50;;;;;;5065564;28;20297;-87
2022/03/22 05:17:11;;;;;;;0.30;0.10;;;0.70;54.40;;;;;;5065801;28;20224;-88
2022/03/22 05:19:39;;;;;;;0.30;0.10;;;0.70;54.30;;;;;;5070115;28;20229;-87
2022/03/22 05:22:06;;;;;;;1.67;0.57;;;0.70;54.20;;;;;;5066181;28;20203;-87
2022/03/22 05:24:33;;;;;;;0.30;0.10;;;0.80;53.90;;;;;;5061052;28;20667;-88
2022/03/22 05:27:02;;;;;;;0.30;0.20;;;1.10;53.50;;;;;;5062951;28;20204;-88
2022/03/22 05:29:30;;;;;;;1.00;0.45;;;1.20;53.20;;;;;;5072003;28;20612;-87
2022/03/22 05:31:57;;;;;;;0.82;0.63;;;1.30;52.90;;;;;;5073382;28;20256;-87
2022/03/22 05:34:24;;;;;;;2.22;1.27;;;1.30;52.90;;;;;;5074431;28;20212;-87
2022/03/22 05:36:51;;;;;;;0.30;0.10;;;1.30;53.00;;;;;;5067940;28;20701;-87
2022/03/22 05:39:18;;;;;;;0.30;0.10;;;1.30;53.20;;;;;;5070041;28;20654;-87
2022/03/22 05:41:45;;;;;;;0.30;0.10;;;1.30;53.20;;;;;;5073270;28;20734;-87
2022/03/22 05:44:14;;;;;;;0.50;0.47;;;1.40;53.00;;;;;;5068138;28;20544;-87
2022/03/22 05:46:41;;;;;;;0.30;0.10;;;1.40;53.00;;;;;;5075368;28;20450;-86
2022/03/22 05:49:09;;;;;;;0.30;0.20;;;1.50;53.20;;;;;;5080317;28;20256;-86
2022/03/22 05:51:37;;;;;;;1.53;1.43;;;1.60;52.60;;;;;;5071211;28;20291;-88
2022/03/22 05:54:04;;;;;;;0.30;0.10;;;1.70;52.30;;;;;;5068792;28;20459;-86
2022/03/22 05:56:31;;;;;;;0.30;0.20;;;1.60;52.80;;;;;;5052785;28;20224;-86
2022/03/22 05:58:59;;;;;;;0.30;0.10;;;1.70;52.50;;;;;;5053807;28;20476;-86
2022/03/22 06:01:28;;;;;;;0.30;0.20;;;1.90;52.30;;;;;;5067561;28;20547;-86
2022/03/22 06:03:56;;;;;;;0.30;0.20;;;2.10;51.80;;;;;;5072803;28;20450;-86
2022/03/22 06:06:23;;;;;;;0.30;0.17;;;2.30;51.40;;;;;;5068256;28;20199;-86
2022/03/22 06:08:51;;;;;;;0.30;0.10;;;2.30;51.20;;;;;;5071289;28;20493;-87
2022/03/22 06:11:18;;;;;;;0.33;0.17;;;2.50;50.90;;;;;;5067411;28;20451;-86
2022/03/22 06:13:45;;;;;;;0.30;0.10;;;2.60;50.80;;;;;;5069330;28;20467;-87
2022/03/22 06:16:13;;;;;;;1.13;0.73;;;2.80;50.10;;;;;;5071288;28;20519;-86
2022/03/22 06:18:41;;;;;;;0.40;0.40;;;2.90;51.00;;;;;;5072739;28;20487;-86
2022/03/22 06:21:08;;;;;;;0.30;0.20;;;3.00;50.00;;;;;;5070114;28;20452;-84
2022/03/22 06:23:35;;;;;;;0.50;0.50;;;3.00;49.90;;;;;;5066413;28;20937;-86
2022/03/22 06:26:02;;;;;;;0.30;0.10;;;3.10;49.60;;;;;;5072684;28;20513;-85
2022/03/22 06:28:29;;;;;;;0.33;0.23;;;3.20;49.30;;;;;;5057716;28;20470;-84
2022/03/22 06:30:56;;;;;;;0.30;0.10;;;3.30;49.30;;;;;;5071104;28;21090;-84
2022/03/22 06:33:24;;;;;;;0.40;0.30;;;3.40;49.40;;;;;;5071561;28;20508;-84
2022/03/22 06:35:53;;;;;;;0.70;0.40;;;3.50;49.50;;;;;;5070165;28;20513;-85
2022/03/22 06:38:20;;;;;;;0.30;0.20;;;3.70;48.80;;;;;;5066463;28;20483;-87
2022/03/22 06:40:49;;;;;;;0.30;0.20;;;3.90;48.10;;;;;;5065457;28;20493;-85
2022/03/22 06:43:17;;;;;;;0.30;0.20;;;4.10;48.10;;;;;;5072059;28;20546;-85
2022/03/22 06:45:45;;;;;;;0.40;0.30;;;4.20;48.20;;;;;;5069829;28;20453;-85
2022/03/22 06:48:15;;;;;;;0.30;0.13;;;4.30;47.50;;;;;;5069678;28;20890;-87
2022/03/22 06:50:43;;;;;;;0.30;0.20;;;4.40;47.30;;;;;;5070971;28;20451;-88
2022/03/22 06:53:12;;;;;;;0.30;0.23;;;4.50;47.50;;;;;;5069648;28;20954;-87
2022/03/22 06:55:39;;;;;;;0.30;0.10;;;4.70;47.00;;;;;;5071780;28;20497;-85
2022/03/22 06:58:07;;;;;;;0.30;0.20;;;4.80;46.80;;;;;;5071418;28;20487;-85
2022/03/22 07:00:35;;;;;;;0.30;0.20;;;4.90;46.50;;;;;;5066533;28;20523;-85
2022/03/22 07:03:04;;;;;;;0.67;0.67;;;5.00;46.80;;;;;;5056453;28;20529;-85
2022/03/22 07:05:32;;;;;;;1.20;1.20;;;5.20;46.80;;;;;;5070062;28;20536;-86
2022/03/22 07:07:59;;;;;;;0.40;0.20;;;5.40;46.90;;;;;;5071806;28;20459;-85
2022/03/22 07:10:28;;;;;;;0.97;0.60;;;5.40;46.60;;;;;;5071847;28;20448;-86
2022/03/22 07:12:56;;;;;;;0.30;0.20;;;5.50;45.40;;;;;;5071331;28;20522;-85
2022/03/22 07:15:29;;;;;;;0.47;0.47;;;5.60;45.80;;;;;;5070524;28;20466;-85
2022/03/22 07:17:58;;;;;;;0.40;0.30;;;5.70;45.50;;;;;;5071260;28;20496;-85
2022/03/22 07:20:25;;;;;;;0.30;0.17;;;5.80;45.50;;;;;;5071530;28;20448;-85
2022/03/22 07:22:52;;;;;;;0.30;0.20;;;5.90;45.20;;;;;;5065692;28;20537;-87
2022/03/22 07:25:20;;;;;;;0.70;0.70;;;6.00;44.50;;;;;;5071344;28;20497;-85
2022/03/22 07:27:48;;;;;;;0.33;0.23;;;6.10;44.10;;;;;;5069975;28;20521;-86
2022/03/22 07:30:16;;;;;;;0.30;0.20;;;6.30;44.80;;;;;;5071257;28;20440;-85
2022/03/22 07:32:44;;;;;;;0.70;0.63;;;6.30;43.20;;;;;;5070494;28;20472;-84
2022/03/22 07:35:12;;;;;;;0.93;0.93;;;6.40;43.30;;;;;;5070656;28;20497;-85
2022/03/22 07:37:39;;;;;;;0.30;0.10;;;6.60;44.00;;;;;;5059545;28;20508;-85
2022/03/22 07:40:08;;;;;;;0.53;0.53;;;6.80;43.30;;;;;;5054564;28;20934;-85
2022/03/22 07:42:37;;;;;;;0.40;0.20;;;6.90;43.00;;;;;;5071114;28;20451;-85
2022/03/22 07:45:07;;;;;;;0.30;0.10;;;6.90;41.90;;;;;;5050633;28;20465;-85
2022/03/22 07:47:34;;;;;;;0.30;0.17;;;7.00;41.80;;;;;;5084070;28;20470;-85
2022/03/22 07:55:32;;;;;;;0.30;0.10;;;7.40;41.80;;;;;;5091243;28;20426;-86
2022/03/22 07:57:59;;;;;;;0.30;0.20;;;7.50;41.20;;;;;;5051581;28;20558;-86
2022/03/22 08:00:30;;;;;;;0.40;0.30;;;7.70;41.30;;;;;;5051468;28;20526;-86
2022/03/22 08:02:58;;;;;;;2.87;1.43;;;7.80;41.40;;;;;;5050824;28;20456;-86
2022/03/22 08:05:26;;;;;;;0.40;0.30;;;7.80;40.90;;;;;;5050892;28;20456;-86
2022/03/22 08:07:54;;;;;;;0.30;0.13;;;8.00;41.60;;;;;;5050800;28;20486;-86
2022/03/22 08:10:21;;;;;;;0.30;0.10;;;7.90;41.00;;;;;;5054466;28;20467;-86
2022/03/22 08:12:48;;;;;;;0.30;0.20;;;8.00;41.00;;;;;;5069672;28;20450;-86
2022/03/22 08:15:17;;;;;;;0.77;0.73;;;8.00;40.70;;;;;;5070697;28;20990;-86
2022/03/22 08:17:45;;;;;;;0.30;0.20;;;8.20;40.80;;;;;;5070457;28;22016;-87
2022/03/22 08:20:14;;;;;;;0.40;0.20;;;8.20;40.90;;;;;;5063106;28;20482;-89
2022/03/22 08:22:50;;;;;;;0.60;0.60;;;8.30;41.60;;;;;;5070317;28;20445;-86
2022/03/22 08:25:22;;;;;;;0.47;0.47;;;8.40;41.20;;;;;;5070814;28;20504;-87
2022/03/22 08:27:49;;;;;;;0.30;0.20;;;8.60;41.10;;;;;;5054263;28;20908;-86
2022/03/22 08:30:18;;;;;;;0.80;0.70;;;8.60;40.50;;;;;;5050780;28;20470;-87
2022/03/22 08:32:46;;;;;;;0.30;0.20;;;8.60;40.60;;;;;;5052257;28;20468;-87
2022/03/22 08:35:13;;;;;;;0.40;0.30;;;8.80;41.10;;;;;;5069617;28;20452;-87
2022/03/22 08:37:40;;;;;;;0.30;0.10;;;8.90;40.70;;;;;;5066152;28;20600;-87
2022/03/22 08:40:09;;;;;;;1.03;1.03;;;9.00;40.70;;;;;;5069263;28;20509;-87
2022/03/22 08:42:37;;;;;;;1.43;0.37;;;9.00;39.70;;;;;;5069686;28;20465;-87
2022/03/22 08:45:06;;;;;;;0.40;0.30;;;9.20;40.20;;;;;;5066487;28;20475;-87
2022/03/22 08:47:35;;;;;;;0.37;0.27;;;9.10;39.90;;;;;;5072983;28;20550;-86
2022/03/22 08:50:05;;;;;;;0.40;0.20;;;9.30;40.70;;;;;;5075612;28;20490;-86
2022/03/22 08:52:32;;;;;;;0.50;0.50;;;9.40;40.40;;;;;;5076491;28;20443;-86
2022/03/22 08:54:59;;;;;;;0.50;0.43;;;9.50;40.60;;;;;;5059946;28;20464;-87
2022/03/22 08:57:26;;;;;;;0.30;0.20;;;9.50;40.60;;;;;;5067985;28;20482;-85
2022/03/22 08:59:53;;;;;;;0.47;0.30;;;9.50;40.20;;;;;;5073079;28;20459;-87
2022/03/22 09:02:20;;;;;;;0.37;0.20;;;9.70;40.80;;;;;;5055802;28;20862;-87
2022/03/22 09:07:33;;;;;;;0.77;0.40;;;9.90;40.40;;;;;;5054197;28;20438;-87
2022/03/22 09:10:00;;;;;;;0.43;0.43;;;10.00;40.00;;;;;;5065009;28;20470;-87
2022/03/22 09:12:27;;;;;;;0.30;0.20;;;10.10;40.10;;;;;;5069504;28;20814;-87
2022/03/22 09:14:54;;;;;;;2.10;0.50;;;10.20;41.40;;;;;;5066530;28;20973;-87
2022/03/22 09:17:22;;;;;;;0.80;0.50;;;10.30;39.80;;;;;;5069609;28;20452;-87
2022/03/22 09:19:48;;;;;;;0.40;0.20;;;10.30;38.30;;;;;;5066346;28;20491;-86
2022/03/22 09:22:15;;;;;;;1.93;0.60;;;10.50;39.40;;;;;;5066598;28;20620;-87
2022/03/22 09:24:44;;;;;;;0.30;0.20;;;10.60;38.80;;;;;;5068760;28;20911;-86
2022/03/22 09:27:11;;;;;;;0.40;0.27;;;10.90;40.10;;;;;;5055909;28;20468;-86
2022/03/22 09:29:38;;;;;;;0.87;0.87;;;11.00;40.20;;;;;;5049838;28;20551;-87
2022/03/22 09:32:05;;;;;;;0.40;0.40;;;11.10;40.00;;;;;;5058301;28;20802;-87
2022/03/22 09:34:33;;;;;;;0.30;0.20;;;11.20;40.00;;;;;;5067084;28;20508;-86
2022/03/22 09:37:00;;;;;;;0.30;0.20;;;11.20;38.80;;;;;;5065080;28;20562;-87
2022/03/22 09:39:27;;;;;;;1.17;1.07;;;11.30;39.90;;;;;;5065901;28;20487;-85
2022/03/22 09:41:57;;;;;;;0.40;0.30;;;11.30;38.80;;;;;;5068190;28;20784;-87
2022/03/22 09:44:24;;;;;;;0.40;0.30;;;11.30;38.00;;;;;;5050019;28;20999;-86
2022/03/22 09:46:51;;;;;;;0.40;0.27;;;11.50;37.50;;;;;;5074047;28;20504;-86
2022/03/22 09:49:18;;;;;;;0.73;0.50;;;11.50;37.50;;;;;;5068280;28;20480;-85
2022/03/22 09:51:44;;;;;;;1.17;0.80;;;11.60;37.10;;;;;;5050350;28;20448;-86
2022/03/22 09:54:12;;;;;;;0.30;0.10;;;11.60;36.70;;;;;;5067249;28;20478;-85
2022/03/22 09:56:40;;;;;;;0.30;0.20;;;11.70;36.70;;;;;;5069212;28;20559;-87
2022/03/22 09:59:08;;;;;;;0.30;0.20;;;12.00;37.10;;;;;;5062680;28;20570;-85
2022/03/22 10:01:35;;;;;;;0.37;0.27;;;12.30;37.00;;;;;;5056925;28;20828;-87
2022/03/22 10:04:04;;;;;;;1.07;1.07;;;12.20;36.10;;;;;;5048945;28;20506;-87
2022/03/22 10:06:32;;;;;;;0.30;0.20;;;12.10;35.10;;;;;;5067258;28;20451;-85
2022/03/22 10:08:59;;;;;;;0.30;0.20;;;12.20;37.10;;;;;;5063044;28;20837;-85
2022/03/22 10:11:36;;;;;;;0.30;0.20;;;12.30;35.40;;;;;;5053117;28;20453;-85
2022/03/22 10:14:03;;;;;;;2.20;0.40;;;12.40;35.30;;;;;;5060162;28;20856;-85
2022/03/22 10:16:32;;;;;;;1.30;1.30;;;12.50;35.20;;;;;;5053317;28;20514;-86
2022/03/22 10:18:59;;;;;;;0.40;0.30;;;12.60;34.50;;;;;;5054276;28;20496;-85
2022/03/22 10:21:26;;;;;;;0.30;0.20;;;12.80;34.70;;;;;;5062876;28;20509;-87
2022/03/22 10:23:55;;;;;;;0.83;0.30;;;12.80;34.90;;;;;;5066518;28;21008;-86
2022/03/22 10:26:32;;;;;;;0.77;0.40;;;13.00;35.00;;;;;;5052711;28;20452;-86
2022/03/22 10:28:59;;;;;;;0.40;0.20;;;13.00;34.30;;;;;;5052414;28;21043;-85
2022/03/22 10:31:35;;;;;;;0.33;0.23;;;13.30;35.50;;;;;;5056657;28;20952;-86
2022/03/22 10:34:02;;;;;;;0.30;0.23;;;13.40;35.60;;;;;;5058307;28;20865;-85
2022/03/22 10:36:33;;;;;;;4.33;0.77;;;13.60;35.10;;;;;;5071148;28;20852;-85
2022/03/22 10:39:02;;;;;;;0.67;0.63;;;13.60;34.50;;;;;;5065275;28;20546;-85
2022/03/22 10:41:31;;;;;;;0.30;0.20;;;13.50;33.60;;;;;;5055998;28;20439;-86
2022/03/22 10:44:05;;;;;;;0.30;0.20;;;13.60;33.90;;;;;;5054777;28;20471;-86
2022/03/22 10:46:35;;;;;;;0.83;0.83;;;13.80;34.80;;;;;;5053083;28;20448;-85
2022/03/22 10:49:05;;;;;;;0.40;0.30;;;14.00;34.90;;;;;;5072389;28;20485;-86
2022/03/22 10:51:34;;;;;;;0.30;0.20;;;14.10;34.90;;;;;;5072655;28;20451;-86
2022/03/22 10:54:01;;;;;;;1.30;1.07;;;14.30;34.20;;;;;;5054964;28;20472;-87
2022/03/22 10:56:28;;;;;;;0.30;0.20;;;14.30;33.20;;;;;;5052152;28;20796;-86
2022/03/22 10:58:56;;;;;;;0.40;0.40;;;14.40;33.80;;;;;;5064664;28;20488;-86
2022/03/22 11:01:24;;;;;;;1.00;0.40;;;14.60;33.10;;;;;;5071466;28;20881;-86
2022/03/22 11:03:57;;;;;;;0.40;0.30;;;14.70;32.40;;;;;;5071394;28;20458;-86
2022/03/22 11:06:29;;;;;;;0.30;0.20;;;14.70;31.00;;;;;;5064971;28;20457;-86
2022/03/22 11:08:56;;;;;;;0.30;0.20;;;14.60;30.70;;;;;;5068523;28;20816;-86
2022/03/22 11:11:25;;;;;;;0.40;0.40;;;14.70;32.60;;;;;;5070764;28;20852;-86
2022/03/22 11:13:52;;;;;;;0.77;0.77;;;14.90;31.60;;;;;;5065605;28;20465;-87
2022/03/22 11:16:20;;;;;;;0.30;0.20;;;15.00;30.50;;;;;;5051730;28;20454;-87
2022/03/22 11:18:49;;;;;;;1.73;0.43;;;14.90;29.00;;;;;;5070247;28;20574;-86
2022/03/22 11:21:20;;;;;;;0.33;0.23;;;14.90;30.00;;;;;;5071567;28;20446;-87
2022/03/22 11:23:47;;;;;;;1.80;0.40;;;15.00;29.60;;;;;;5069863;28;20466;-87
2022/03/22 11:26:17;;;;;;;0.80;0.20;;;15.20;30.70;;;;;;5066727;28;20459;-86
2022/03/22 11:28:46;;;;;;;0.83;0.77;;;15.30;30.00;;;;;;5056321;28;20456;-86
2022/03/22 11:31:16;;;;;;;1.13;0.60;;;15.10;31.00;;;;;;5060504;28;20463;-86
2022/03/22 11:36:41;;;;;;;0.50;0.40;;;15.50;30.80;;;;;;5070716;28;20632;-87
2022/03/22 11:39:08;;;;;;;1.37;0.57;;;15.30;30.30;;;;;;5059554;28;20509;-87
2022/03/22 11:44:27;;;;;;;0.40;0.30;;;15.40;29.90;;;;;;5059804;28;21167;-86
2022/03/22 11:47:07;;;;;;;1.47;1.43;;;15.50;30.00;;;;;;5079593;28;20481;-86
2022/03/22 11:49:49;;;;;;;0.50;0.30;;;15.70;30.50;;;;;;5072202;28;20472;-87
2022/03/22 11:52:18;;;;;;;0.40;0.30;;;15.60;31.10;;;;;;5070850;28;20458;-86
2022/03/22 11:54:58;;;;;;;0.47;0.47;;;15.60;31.40;;;;;;5059858;28;20528;-87
2022/03/22 11:57:26;;;;;;;0.40;0.30;;;15.60;30.50;;;;;;5055722;28;20875;-86
2022/03/22 11:59:54;;;;;;;0.40;0.30;;;15.40;29.80;;;;;;5069889;28;20514;-87
2022/03/22 12:02:27;;;;;;;1.70;0.40;;;15.60;30.60;;;;;;5084411;28;20457;-87
2022/03/22 12:04:56;;;;;;;0.40;0.40;;;15.50;31.00;;;;;;5063394;28;20970;-88
2022/03/22 12:07:29;;;;;;;0.40;0.30;;;15.60;30.10;;;;;;5069862;28;20477;-87
2022/03/22 12:10:05;;;;;;;0.80;0.80;;;15.50;30.00;;;;;;5070270;28;20859;-88
2022/03/22 12:12:34;;;;;;;0.70;0.70;;;15.80;30.50;;;;;;5069142;28;20559;-87
2022/03/22 12:15:02;;;;;;;0.40;0.30;;;15.60;29.40;;;;;;5070321;28;20474;-87
2022/03/22 12:17:29;;;;;;;0.80;0.63;;;15.80;30.00;;;;;;5056147;28;20466;-87
2022/03/22 12:20:00;;;;;;;1.00;0.60;;;15.60;29.30;;;;;;5068078;28;20491;-88
2022/03/22 12:22:31;;;;;;;0.60;0.30;;;15.70;30.00;;;;;;5067435;28;20486;-87
2022/03/22 12:25:00;;;;;;;0.60;0.30;;;16.00;30.70;;;;;;5070193;28;20449;-87
2022/03/22 12:27:28;;;;;;;0.43;0.40;;;16.20;29.20;;;;;;5055797;28;20472;-87
2022/03/22 12:29:56;;;;;;;0.40;0.40;;;16.60;29.70;;;;;;5067154;28;20455;-88
2022/03/22 12:32:26;;;;;;;0.40;0.20;;;16.30;27.80;;;;;;5061821;28;21025;-87
2022/03/22 12:34:53;;;;;;;0.40;0.40;;;16.30;29.30;;;;;;5053021;28;20501;-88
2022/03/22 12:37:21;;;;;;;0.40;0.30;;;16.40;29.10;;;;;;5050696;28;20446;-88
2022/03/22 12:39:49;;;;;;;0.40;0.40;;;16.50;28.50;;;;;;5064478;28;20484;-87
2022/03/22 12:42:18;;;;;;;3.03;0.83;;;16.60;28.50;;;;;;5068579;28;20458;-88
2022/03/22 12:44:46;;;;;;;1.57;0.50;;;16.60;28.60;;;;;;5050301;28;20470;-87
2022/03/22 12:47:13;;;;;;;0.30;0.20;;;16.50;28.10;;;;;;5057390;28;20468;-88
2022/03/22 12:49:41;;;;;;;0.30;0.20;;;16.50;28.10;;;;;;5070089;28;20812;-88
2022/03/22 12:52:09;;;;;;;0.90;0.40;;;16.60;28.30;;;;;;5068631;28;20460;-87
2022/03/22 12:54:39;;;;;;;0.40;0.30;;;16.70;28.90;;;;;;5070147;28;20547;-87
2022/03/22 12:57:10;;;;;;;0.40;0.20;;;16.70;28.00;;;;;;5071221;28;20540;-87
2022/03/22 12:59:38;;;;;;;1.97;0.97;;;16.80;28.60;;;;;;5065923;28;20583;-87
2022/03/22 13:02:07;;;;;;;0.90;0.33;;;16.90;28.40;;;;;;5050115;28;20817;-87
2022/03/22 13:04:37;;;;;;;0.40;0.30;;;16.90;28.10;;;;;;5068675;28;20462;-88
2022/03/22 13:07:05;;;;;;;0.83;0.83;;;17.00;28.10;;;;;;5066237;28;20536;-87
2022/03/22 13:12:20;;;;;;;0.40;0.20;;;16.80;27.60;;;;;;5056777;28;20451;-88
2022/03/22 13:15:04;;;;;;;0.40;0.30;;;16.80;27.70;;;;;;5070015;28;20984;-88
2022/03/22 13:17:42;;;;;;;0.50;0.30;;;16.90;28.10;;;;;;5063788;28;20470;-88
2022/03/22 13:20:17;;;;;;;0.40;0.30;;;17.00;28.30;;;;;;5069556;28;20987;-88
2022/03/22 13:22:52;;;;;;;0.50;0.40;;;16.90;27.80;;;;;;5063992;28;20464;-89
2022/03/22 13:25:25;;;;;;;0.30;0.20;;;16.90;28.20;;;;;;5069931;28;20451;-87
2022/03/22 13:28:00;;;;;;;0.40;0.30;;;16.80;27.70;;;;;;5064662;28;20460;-87
2022/03/22 13:30:28;;;;;;;0.40;0.30;;;16.90;28.30;;;;;;5070262;28;20456;-87
2022/03/22 13:33:06;;;;;;;0.97;0.43;;;16.90;28.20;;;;;;5069966;28;20932;-88
2022/03/22 13:35:34;;;;;;;0.87;0.20;;;17.00;27.80;;;;;;5069751;28;20529;-89